Home > Products > Valid Products > TAF

000
FTUS41 KPBZ 291918 AAA
TAFPIT
TAF AMD
KPIT 291918Z 2919/3024 31010KT P6SM OVC012
     FM300400 VRB03KT 3SM BR BKN003
     FM300900 VRB03KT 5SM BR SCT003
     FM301500 10005KT P6SM SCT040
     FM302200 10005KT P6SM -RA OVC040=



000
FTUS41 KPBZ 291912 AAA
TAFMGW
TAF AMD
KMGW 291912Z 2919/3018 26006KT P6SM BKN035
     FM300500 00000KT P6SM BKN008
     FM301200 VRB03KT P6SM SCT003
     FM301400 VRB04KT P6SM BKN040=



000
FTUS41 KPBZ 291912 AAA
TAFHLG
TAF AMD
KHLG 291912Z 2919/3018 30005KT P6SM OVC020
     FM300300 VRB03KT 3SM BR BKN003
     FM300800 VRB03KT 5SM BR SCT003
     FM301500 10005KT P6SM SCT040=



000
FTUS41 KPBZ 291911 AAA
TAFBVI
TAF AMD
KBVI 291911Z 2919/3018 30005KT P6SM OVC008
     FM300300 VRB03KT 3SM BR BKN003
     FM300900 VRB03KT 5SM BR SCT003
     FM301500 10005KT P6SM BKN040=



000
FTUS41 KPBZ 291800 CCA
TAFLBE
TAF COR
KLBE 291800Z 2918/3018 25006KT P6SM OVC020
     FM300300 VRB03KT 3SM BR BKN008
     FM301100 VRB03KT 5SM BR SCT008
     FM301600 10005KT P6SM SCT040=



000
FTUS41 KPBZ 291731
TAFPIT
TAF
KPIT 291731Z 2918/3024 VRB03KT P6SM OVC012
     FM292000 31006KT P6SM VCSH OVC015
     FM300400 VRB03KT 3SM BR BKN003
     FM300900 VRB03KT 5SM BR SCT003
     FM301500 10005KT P6SM SCT040
     FM302200 10005KT P6SM -RA OVC040=



000
FTUS41 KPBZ 291731
TAFHLG
TAF
KHLG 291731Z 2918/3018 VRB03KT P6SM OVC018
     FM300300 VRB03KT 3SM BR BKN003
     FM300800 VRB03KT 5SM BR SCT003
     FM301500 10005KT P6SM SCT040=



000
FTUS41 KPBZ 291731
TAFLBE
TAF
KLBE 291731Z 2918/3018 VRB03KT 2SM BR OVC006
     FM292000 31006KT 5SM BR VCSH OVC010
     FM300300 VRB03KT 3SM BR BKN003
     FM301100 VRB03KT 5SM BR SCT003
     FM301600 10005KT P6SM SCT040=



000
FTUS41 KPBZ 291731
TAFBVI
TAF
KBVI 291731Z 2918/3018 VRB03KT P6SM OVC006
     FM292000 31006KT P6SM VCSH OVC010
     FM300300 VRB03KT 3SM BR BKN003
     FM300900 VRB03KT 5SM BR SCT003
     FM301500 10005KT P6SM BKN040=



000
FTUS41 KPBZ 291731
TAFZZV
TAF
KZZV 291731Z 2918/3018 28006KT P6SM BKN015
     FM300300 00000KT 3SM BR SCT008
     FM300900 07003KT 3SM BR SCT003
     FM301500 09005KT P6SM BKN050=



000
FTUS41 KPBZ 291731
TAFDUJ
TAF
KDUJ 291731Z 2918/3018 VRB04KT 2SM BR OVC003
     FM292100 00000KT 5SM -SHRA OVC008
     FM300200 00000KT 3SM BR BKN003
     FM301300 VRB04KT 3SM BR SCT003
     FM301500 11005KT P6SM BKN020=



000
FTUS41 KPBZ 291731
TAFMGW
TAF
KMGW 291731Z 2918/3018 26006KT P6SM BKN030
     FM300500 00000KT P6SM BKN008
     FM301200 VRB03KT P6SM SCT003
     FM301400 VRB04KT P6SM BKN040=



000
FTUS41 KPBZ 291731
TAFAGC
TAF
KAGC 291731Z 2918/3018 28006KT P6SM OVC012
     FM300400 VRB03KT 3SM BR BKN003
     FM300900 VRB03KT 5SM BR SCT003
     FM301500 10005KT P6SM SCT040=



000
FTUS41 KPBZ 291525 AAA
TAFHLG
TAF AMD
KHLG 291525Z 2915/3012 25005KT P6SM OVC015
     FM300300 VRB04KT 4SM BR OVC007
     FM300600 VRB04KT 2SM BR OVC003=



000
FTUS41 KPBZ 291525 AAA
TAFHLG
TAF AMD
KHLG 291525Z 2915/3012 25005KT P6SM OVC015
     FM300300 VRB04KT 4SM BR OVC007
     FM300600 VRB04KT 2SM BR OVC003=



000
FTUS41 KPBZ 291522 AAA
TAFBVI
TAF AMD
KBVI 291522Z 2915/3012 22003KT 2SM BR OVC004
     FM291800 26005KT 5SM BR OVC008
     FM292100 30005KT P6SM VCSH OVC012
     FM300300 VRB04KT 4SM BR OVC007
     FM300600 VRB04KT 2SM BR OVC003=



000
FTUS41 KPBZ 291519 AAA
TAFAGC
TAF AMD
KAGC 291519Z 2915/3012 24005KT 2SM BR OVC004
     FM291800 29005KT 5SM BR BKN010
     FM300400 34004KT 2SM BR OVC007=



000
FTUS41 KPBZ 291454 AAA
TAFDUJ
TAF AMD
KDUJ 291454Z 2915/3012 34005KT 3SM BR OVC003
     FM291700 09005KT 5SM BR OVC006
     FM292000 32005KT P6SM VCSH BKN010
     FM300400 34004KT 1 1/2SM BR OVC003=



000
FTUS41 KPBZ 291454 AAA
TAFDUJ
TAF AMD
KDUJ 291454Z 2915/3012 34005KT 3SM BR OVC003
     FM291700 09005KT 5SM BR OVC006
     FM292000 32005KT P6SM VCSH BKN010
     FM300400 34004KT 1 1/2SM BR OVC003=



000
FTUS41 KPBZ 291453 AAA
TAFMGW
TAF AMD
KMGW 291453Z 2915/3012 VRB03KT 2SM BR OVC004
     FM291600 24005KT 4SM BR OVC008
     FM291800 28006KT P6SM BKN015
     FM300400 34004KT 2SM BR OVC008=



000
FTUS41 KPBZ 291453 AAA
TAFMGW
TAF AMD
KMGW 291453Z 2915/3012 VRB03KT 2SM BR OVC004
     FM291600 24005KT 4SM BR OVC008
     FM291800 28006KT P6SM BKN015
     FM300400 34004KT 2SM BR OVC008=



000
FTUS41 KPBZ 291452 AAB
TAFPIT
TAF AMD
KPIT 291452Z 2915/3018 24005KT 4SM BR OVC004
     FM291800 29005KT P6SM BKN015
     FM300400 34004KT 2SM BR OVC007=



000
FTUS41 KPBZ 291240 AAA
TAFPIT
TAF AMD
KPIT 291240Z 2913/3018 33005KT 2SM BR OVC004
     FM291330 34005KT 5SM BR OVC008
     FM291800 29005KT P6SM BKN015
     FM300400 34004KT 2SM BR OVC007=



000
FTUS41 KPBZ 291240 AAA
TAFPIT
TAF AMD
KPIT 291240Z 2913/3018 33005KT 2SM BR OVC004
     FM291330 34005KT 5SM BR OVC008
     FM291800 29005KT P6SM BKN015
     FM300400 34004KT 2SM BR OVC007=



000
FTUS41 KPBZ 291129
TAFAGC
TAF
KAGC 291129Z 2912/3012 35004KT 1/4SM -DZ FG VV002
     FM291330 34005KT 1SM BR OVC006
     FM291500 32005KT 3SM BR OVC008
     FM291800 29005KT P6SM BKN015
     FM300400 34004KT 2SM BR OVC007=



000
FTUS41 KPBZ 291129
TAFHLG
TAF
KHLG 291129Z 2912/3012 00000KT 1/4SM -DZ FG VV002
     FM291330 34005KT 1SM BR OVC006
     FM291500 32005KT 3SM BR OVC008
     FM291800 28005KT P6SM OVC015
     FM300400 34004KT 2SM BR OVC007=



000
FTUS41 KPBZ 291129
TAFBVI
TAF
KBVI 291129Z 2912/3012 00000KT 1/2SM DZ FG OVC003
     FM291300 34005KT 2SM BR OVC006
     FM291500 32005KT 5SM BR OVC008
     FM291800 30005KT P6SM BKN015
     FM300400 34004KT 2SM BR OVC003
      AMD NOT SKED TIL 291200=



000
FTUS41 KPBZ 291129
TAFLBE
TAF
KLBE 291129Z 2912/3012 00000KT 2SM -DZ BR OVC003
     FM291500 32005KT 5SM BR OVC008
     FM291800 27005KT P6SM BKN015
     FM300300 30004KT 5SM BR BKN006=



000
FTUS41 KPBZ 291129
TAFMGW
TAF
KMGW 291129Z 2912/3012 34004KT 1/2SM DZ FG VV002
     FM291330 34005KT 2SM BR OVC006
     FM291500 VRB03KT 5SM BR OVC008
     FM291800 28006KT P6SM BKN015
     FM300400 34004KT 2SM BR OVC008=



000
FTUS41 KPBZ 291129
TAFPIT
TAF
KPIT 291129Z 2912/3018 33005KT 1/4SM DZ FG OVC001
     FM291330 34005KT 3SM BR OVC008
     FM291800 29005KT P6SM BKN015
     FM300400 34004KT 2SM BR OVC007=



000
FTUS41 KPBZ 291129
TAFZZV
TAF
KZZV 291129Z 2912/3012 00000KT 2SM -DZ BR OVC005
     FM291600 00000KT P6SM BKN015
     FM300800 02002KT 4SM BR SCT012=



000
FTUS41 KPBZ 291129
TAFDUJ
TAF
KDUJ 291129Z 2912/3012 09007KT 1SM BR OVC003
     FM291400 34005KT 3SM BR OVC006
     FM291700 09005KT 5SM BR OVC008
     FM292000 32005KT P6SM VCSH BKN010
     FM300400 34004KT 1 1/2SM BR OVC003=



000
FTUS41 KPBZ 291017 AAA
TAFDUJ
TAF AMD
KDUJ 291017Z 2910/3006 09007KT 2SM -DZ BR OVC002
     FM291300 34005KT 3SM BR OVC006
     FM291400 09005KT 5SM BR OVC008
     FM292000 32005KT P6SM BKN010
     FM300400 34004KT 1 1/2SM BR OVC003=



000
FTUS41 KPBZ 291017 AAB
TAFPIT
TAF AMD
KPIT 291017Z 2910/3012 33005KT 1SM -DZ BR OVC001
     FM291300 34005KT 3SM BR OVC008
     FM291800 29005KT P6SM BKN015
     FM300400 34004KT 2SM BR OVC007=



000
FTUS41 KPBZ 291017 AAA
TAFLBE
TAF AMD
KLBE 291017Z 2910/3006 00000KT 1 1/2SM -DZ BR OVC005
     FM291800 27005KT P6SM BKN015
     FM300300 30004KT 5SM BR BKN006=



000
FTUS41 KPBZ 291017 AAA
TAFBVI
TAF AMD
KBVI 291017Z 2910/3006 00000KT 2SM -DZ BR OVC003
     FM291300 34005KT 3SM BR OVC006
     FM291400 32005KT 5SM BR OVC008
     FM291800 30005KT P6SM BKN015
     FM300400 34004KT 2SM BR OVC003
      AMD NOT SKED TIL 291200=



000
FTUS41 KPBZ 291017 AAB
TAFMGW
TAF AMD
KMGW 291017Z 2910/3006 00000KT 1/2SM -DZ FG VV002
     FM291300 34005KT 2SM BR OVC006
     FM291400 VRB03KT 5SM BR OVC008
     FM291800 28006KT P6SM BKN025=



000
FTUS41 KPBZ 291017 AAA
TAFAGC
TAF AMD
KAGC 291017Z 2910/3006 00000KT 1/2SM -DZ FG VV002
     FM291300 34005KT 1SM BR OVC006
     FM291400 32005KT 3SM BR OVC008
     FM291800 29005KT P6SM BKN015
     FM300400 34004KT 2SM BR OVC007=



000
FTUS41 KPBZ 291017 AAA
TAFZZV
TAF AMD
KZZV 291017Z 2910/3006 00000KT 4SM BR OVC005
     FM291300 00000KT P6SM BKN015=



000
FTUS41 KPBZ 291017 AAA
TAFHLG
TAF AMD
KHLG 291017Z 2910/3006 31003KT 1/4SM -DZ FG VV002
     FM291400 28005KT P6SM OVC008
     FM291900 29006KT P6SM BKN025=



000
FTUS41 KPBZ 290918 AAA
TAFPIT
TAF AMD
KPIT 290918Z 2909/3012 00000KT 1/2SM -DZ FG VV001
     FM291300 34005KT 3SM BR OVC008
     FM291800 29005KT P6SM BKN015
     FM300400 34004KT 2SM BR OVC007=



000
FTUS41 KPBZ 290918 AAA
TAFPIT
TAF AMD
KPIT 290918Z 2909/3012 00000KT 1/2SM -DZ FG VV001
     FM291300 34005KT 3SM BR OVC008
     FM291800 29005KT P6SM BKN015
     FM300400 34004KT 2SM BR OVC007=



000
FTUS41 KPBZ 290637 AAA
TAFMGW
TAF AMD
KMGW 290637Z 2907/3006 00000KT P6SM BKN005
     FM290900 00000KT 2SM BR OVC008
     FM291400 VRB03KT 5SM BR OVC008
     FM291800 28006KT P6SM BKN025=



000
FTUS41 KPBZ 290637 AAA
TAFMGW
TAF AMD
KMGW 290637Z 2907/3006 00000KT P6SM BKN005
     FM290900 00000KT 2SM BR OVC008
     FM291400 VRB03KT 5SM BR OVC008
     FM291800 28006KT P6SM BKN025=



000
FTUS41 KPBZ 290526
TAFDUJ
TAF
KDUJ 290526Z 2906/3006 10009KT 2SM BR OVC003
     FM291400 09005KT 5SM BR OVC008
     FM292000 32005KT P6SM BKN010=



000
FTUS41 KPBZ 290526
TAFZZV
TAF
KZZV 290526Z 2906/3006 34005KT 6SM BR OVC010
     FM290800 00000KT 3SM BR OVC008
     FM291500 00000KT P6SM BKN015
     FM292000 31007KT P6SM BKN025=



000
FTUS41 KPBZ 290526
TAFBVI
TAF
KBVI 290526Z 2906/3006 00000KT 2SM BR OVC003
     FM291400 32005KT 5SM BR OVC008
     FM291800 30005KT P6SM BKN015
      AMD NOT SKED TIL 291200=



000
FTUS41 KPBZ 290526
TAFHLG
TAF
KHLG 290526Z 2906/3006 05004KT 3/4SM BR VV002
     FM291400 28005KT P6SM OVC008
     FM291900 29006KT P6SM BKN025=



000
FTUS41 KPBZ 290526
TAFLBE
TAF
KLBE 290526Z 2906/3006 36005KT P6SM OVC017
     FM291300 27005KT P6SM BKN015=



000
FTUS41 KPBZ 290526
TAFAGC
TAF
KAGC 290526Z 2906/3006 34003KT 1/4SM FG VV002
     FM291400 32005KT 3SM BR OVC008
     FM291800 29005KT P6SM BKN015=



000
FTUS41 KPBZ 290526
TAFPIT
TAF
KPIT 290526Z 2906/3012 35004KT 1SM BR OVC002
     FM291300 34005KT 3SM BR OVC008
     FM291800 29005KT P6SM BKN015
     FM300400 33003KT 1 1/2SM BR OVC003=



000
FTUS41 KPBZ 290526
TAFMGW
TAF
KMGW 290526Z 2906/3006 00000KT P6SM SCT080 OVC110
     FM290900 00000KT 2SM BR OVC008
     FM291400 VRB03KT 5SM BR OVC008
     FM291800 28006KT P6SM BKN025=



000
FTUS41 KPBZ 290206 AAA
TAFDUJ
TAF AMD
KDUJ 290206Z 2902/2924 09005KT 2SM BR OVC003
     FM291400 09005KT 5SM BR OVC008
     FM292000 32005KT P6SM BKN010=



000
FTUS41 KPBZ 290136 AAA
TAFPIT
TAF AMD
KPIT 290136Z 2902/3006 05005KT 1SM -DZ BR OVC003
     FM291300 34005KT 3SM BR OVC008
     FM291800 29005KT P6SM BKN015=



000
FTUS41 KPBZ 290136 AAA
TAFPIT
TAF AMD
KPIT 290136Z 2902/3006 05005KT 1SM -DZ BR OVC003
     FM291300 34005KT 3SM BR OVC008
     FM291800 29005KT P6SM BKN015=



000
FTUS41 KPBZ 290135 AAA
TAFZZV
TAF AMD
KZZV 290135Z 2902/2924 01005KT P6SM BKN015
     FM290800 00000KT 3SM BR OVC008
     FM291500 00000KT P6SM BKN015
     FM292000 31007KT P6SM BKN025=



000
FTUS41 KPBZ 290135 AAA
TAFZZV
TAF AMD
KZZV 290135Z 2902/2924 01005KT P6SM BKN015
     FM290800 00000KT 3SM BR OVC008
     FM291500 00000KT P6SM BKN015
     FM292000 31007KT P6SM BKN025=



000
FTUS41 KPBZ 290134 AAA
TAFHLG
TAF AMD
KHLG 290134Z 2902/2924 36005KT 3SM BR OVC002
     FM291400 28005KT P6SM OVC008
     FM291900 29006KT P6SM BKN025=



000
FTUS41 KPBZ 290134 AAA
TAFHLG
TAF AMD
KHLG 290134Z 2902/2924 36005KT 3SM BR OVC002
     FM291400 28005KT P6SM OVC008
     FM291900 29006KT P6SM BKN025=



000
FTUS41 KPBZ 290133 AAA
TAFAGC
TAF AMD
KAGC 290133Z 2902/2924 01005KT 1/2SM -DZ FG OVC002
     FM291400 32005KT 3SM BR OVC008
     FM291800 29005KT P6SM BKN015=



000
FTUS41 KPBZ 290133 AAA
TAFAGC
TAF AMD
KAGC 290133Z 2902/2924 01005KT 1/2SM -DZ FG OVC002
     FM291400 32005KT 3SM BR OVC008
     FM291800 29005KT P6SM BKN015=



000
FTUS41 KPBZ 290133 AAA
TAFBVI
TAF AMD
KBVI 290133Z 2902/2924 03005KT 2SM BR OVC003
     FM291400 32005KT 5SM BR OVC008
     FM291800 30005KT P6SM BKN015
      AMD NOT SKED 2902/2912=



000
FTUS41 KPBZ 290133 AAA
TAFBVI
TAF AMD
KBVI 290133Z 2902/2924 03005KT 2SM BR OVC003
     FM291400 32005KT 5SM BR OVC008
     FM291800 30005KT P6SM BKN015
      AMD NOT SKED 2902/2912=



000
FTUS41 KPBZ 282358 CCA
TAFDUJ
TAF COR
KDUJ 282358Z 2900/2924 10005KT 3SM BR OVC003
     FM291100 11005KT 5SM BR OVC008
     FM292000 32005KT P6SM BKN010=



000
FTUS41 KPBZ 282358 CCA
TAFMGW
TAF COR
KMGW 282358Z 2900/2924 VRB03KT P6SM BKN015
     FM290900 00000KT 2SM BR OVC008
     FM291400 VRB03KT 5SM BR OVC008
     FM291800 28006KT P6SM BKN025=



000
FTUS41 KPBZ 282358 CCA
TAFDUJ
TAF COR
KDUJ 282358Z 2900/2924 10005KT 3SM BR OVC003
     FM291100 11005KT 5SM BR OVC008
     FM292000 32005KT P6SM BKN010=



000
FTUS41 KPBZ 282356 CCA
TAFAGC
TAF COR
KAGC 282356Z 2900/2924 01005KT 1/4SM -DZ FG OVC002
     FM290300 VRB04KT 3SM BR OVC008
     FM291800 29005KT P6SM BKN015=



000
FTUS41 KPBZ 282356 CCA
TAFAGC
TAF COR
KAGC 282356Z 2900/2924 01005KT 1/4SM -DZ FG OVC002
     FM290300 VRB04KT 3SM BR OVC008
     FM291800 29005KT P6SM BKN015=



000
FTUS41 KPBZ 282328 CCB
TAFPIT
TAF COR
KPIT 282328Z 2900/3006 05005KT 1SM -DZ BR OVC003
     FM290200 02005KT 2SM BR OVC008
     FM290600 34005KT 3SM BR OVC008
     FM291800 29005KT P6SM BKN015=



000
FTUS41 KPBZ 282325 CCA
TAFPIT
TAF COR
KPIT 282325Z 2900/3006 05005KT 1SM -DZ BR OVC004
     FM290200 02005KT 3SM BR OVC008
     FM290600 34005KT 3SM BR OVC008
     FM291800 29005KT P6SM BKN015=



000
FTUS41 KPBZ 282321
TAFHLG
TAF
KHLG 282321Z 2900/2924 36005KT 5SM BR OVC004
     FM290100 34003KT P6SM BKN015
     FM291100 28005KT P6SM OVC008
     FM291900 29006KT P6SM BKN025=



000
FTUS41 KPBZ 282321
TAFMGW
TAF
KMGW 282321Z 2900/2924 VRB03KT P6SM VCSH BKN040
     FM290600 00000KT 3SM BR OVC025
     FM290900 00000KT 2SM BR OVC008
     FM291400 VRB03KT 5SM BR OVC008
     FM291800 28006KT P6SM BKN025=



000
FTUS41 KPBZ 282321
TAFLBE
TAF
KLBE 282321Z 2900/2924 12005KT P6SM OVC015
     FM291300 27005KT P6SM BKN015=



000
FTUS41 KPBZ 282321
TAFBVI
TAF
KBVI 282321Z 2900/2924 03005KT 3SM BR OVC005
     FM291800 30005KT P6SM BKN010
      AMD NOT SKED 2902/2912=



000
FTUS41 KPBZ 282321
TAFDUJ
TAF
KDUJ 282321Z 2900/2924 08008KT P6SM OVC008
     FM290600 10005KT 3SM BR OVC003
     FM291100 11005KT 5SM BR OVC008
     FM292000 32005KT P6SM BKN010=



000
FTUS41 KPBZ 282321
TAFAGC
TAF
KAGC 282321Z 2900/2924 05005KT 1SM -DZ BR OVC004
     FM290200 VRB04KT 3SM BR OVC008
     FM291800 29005KT P6SM BKN015=



000
FTUS41 KPBZ 282321
TAFZZV
TAF
KZZV 282321Z 2900/2924 VRB04KT P6SM BKN025
     FM290800 00000KT 3SM BR OVC008
     FM291500 00000KT P6SM BKN015
     FM292000 31007KT P6SM BKN025=



000
FTUS41 KPBZ 282321
TAFPIT
TAF
KPIT 282321Z 2900/3006 05005KT 2SM -DZ BR OVC004
     FM290200 02005KT 3SM BR OVC008
     FM290600 34005KT 3SM BR OVC008
     FM291800 29005KT P6SM BKN015=



000
FTUS41 KPBZ 282232 AAC
TAFPIT
TAF AMD
KPIT 282232Z 2823/2924 03005KT 2SM -DZ BR OVC003
     FM290200 33005KT P6SM OVC008
     FM291700 28005KT P6SM BKN015
     FM292100 29005KT P6SM BKN025=



000
FTUS41 KPBZ 282135 AAB
TAFHLG
TAF AMD
KHLG 282135Z 2822/2918 35005KT 5SM BR BKN008
     FM290000 VRB05KT P6SM BKN015
     FM290300 VRB04KT P6SM OVC008
     FM290700 VRB03KT P6SM OVC004
     FM291500 VRB03KT P6SM OVC008=



000
FTUS41 KPBZ 282102 AAC
TAFAGC
TAF AMD
KAGC 282102Z 2821/2918 02005KT 1/4SM -DZ FG OVC002
     FM282300 VRB03KT P6SM BKN010
     FM290200 VRB04KT P6SM OVC008
     FM290600 VRB03KT P6SM OVC004
     FM291500 VRB03KT P6SM OVC008=



000
FTUS41 KPBZ 282046 AAB
TAFMGW
TAF AMD
KMGW 282046Z 2821/2918 VRB05KT P6SM VCTS BKN035CB
     FM290000 VRB05KT P6SM BKN015
     FM290800 VRB04KT P6SM OVC008
     FM291500 VRB03KT P6SM OVC015=



000
FTUS41 KPBZ 282043 AAB
TAFPIT
TAF AMD
KPIT 282043Z 2821/2924 03005KT 2SM -DZ BR OVC003
     FM282200 04005KT P6SM BKN015
     FM290200 33005KT P6SM OVC008
     FM291700 28005KT P6SM BKN015
     FM292100 29005KT P6SM BKN025=



000
FTUS41 KPBZ 282027 AAA
TAFDUJ
TAF AMD
KDUJ 282027Z 2820/2918 10009KT 3SM -SHRA OVC008
      TEMPO 2820/2822 3/4SM SHRA
     FM282300 09007KT 5SM -SHRA OVC010
     FM290100 08006KT P6SM OVC008
     FM290400 08005KT P6SM OVC004
     FM291500 VRB04KT P6SM VCSH OVC008=



000
FTUS41 KPBZ 282026 AAB
TAFBVI
TAF AMD
KBVI 282026Z 2820/2918 06006KT 2SM BR OVC005
     FM282300 VRB03KT P6SM OVC008
     FM290600 VRB03KT P6SM OVC004
     FM291500 VRB03KT P6SM OVC008=



000
FTUS41 KPBZ 282026 AAB
TAFAGC
TAF AMD
KAGC 282026Z 2820/2918 07005KT 2SM -DZ BR OVC002
      TEMPO 2820/2821 1/4SM -DZ FG
     FM282200 08007KT P6SM BKN010
     FM290200 VRB04KT P6SM OVC008
     FM290600 VRB03KT P6SM OVC004
     FM291500 VRB03KT P6SM OVC008=



000
FTUS41 KPBZ 282004 AAA
TAFAGC
TAF AMD
KAGC 282004Z 2820/2918 07005KT 2SM -DZ BR OVC002
     FM282200 08007KT P6SM BKN010
     FM290200 VRB04KT P6SM OVC008
     FM290600 VRB03KT P6SM OVC004
     FM291500 VRB03KT P6SM OVC008=



000
FTUS41 KPBZ 282004 AAA
TAFAGC
TAF AMD
KAGC 282004Z 2820/2918 07005KT 2SM -DZ BR OVC002
     FM282200 08007KT P6SM BKN010
     FM290200 VRB04KT P6SM OVC008
     FM290600 VRB03KT P6SM OVC004
     FM291500 VRB03KT P6SM OVC008=



000
FTUS41 KPBZ 281938 AAA
TAFMGW
TAF AMD
KMGW 281938Z 2820/2918 07005KT 5SM -TSRA BKN025CB
     FM282015 VRB05KT P6SM BKN035
     FM290000 08007KT P6SM BKN015 OVC025
     FM290800 VRB04KT P6SM OVC008
     FM291500 VRB03KT P6SM OVC015=



000
FTUS41 KPBZ 281938 AAA
TAFMGW
TAF AMD
KMGW 281938Z 2820/2918 07005KT 5SM -TSRA BKN025CB
     FM282015 VRB05KT P6SM BKN035
     FM290000 08007KT P6SM BKN015 OVC025
     FM290800 VRB04KT P6SM OVC008
     FM291500 VRB03KT P6SM OVC015=



000
FTUS41 KPBZ 281937 AAA
TAFHLG
TAF AMD
KHLG 281937Z 2820/2918 35005KT P6SM BKN010
     FM290300 VRB04KT P6SM OVC008
     FM290700 VRB03KT P6SM OVC004
     FM291500 VRB03KT P6SM OVC008=



000
FTUS41 KPBZ 281936 AAA
TAFLBE
TAF AMD
KLBE 281936Z 2820/2918 12010KT P6SM VCSH OVC015
     FM290200 VRB04KT P6SM OVC008
     FM291400 VRB03KT P6SM OVC010=



000
FTUS41 KPBZ 281936 AAA
TAFLBE
TAF AMD
KLBE 281936Z 2820/2918 12010KT P6SM VCSH OVC015
     FM290200 VRB04KT P6SM OVC008
     FM291400 VRB03KT P6SM OVC010=



000
FTUS41 KPBZ 281935 AAA
TAFPIT
TAF AMD
KPIT 281935Z 2820/2924 03005KT 2SM -DZ BR OVC003
     FM282200 08007KT P6SM BKN010
     FM290200 VRB04KT P6SM OVC008
     FM290600 VRB03KT P6SM OVC004
     FM291500 VRB03KT P6SM OVC008
     FM291900 VRB04KT P6SM BKN015
     FM292100 31007KT P6SM BKN025=



000
FTUS41 KPBZ 281935 AAA
TAFPIT
TAF AMD
KPIT 281935Z 2820/2924 03005KT 2SM -DZ BR OVC003
     FM282200 08007KT P6SM BKN010
     FM290200 VRB04KT P6SM OVC008
     FM290600 VRB03KT P6SM OVC004
     FM291500 VRB03KT P6SM OVC008
     FM291900 VRB04KT P6SM BKN015
     FM292100 31007KT P6SM BKN025=



000
FTUS41 KPBZ 281822 AAA
TAFBVI
TAF AMD
KBVI 281822Z 2818/2918 06006KT P6SM OVC008
     FM290600 VRB03KT P6SM OVC004
     FM291500 VRB03KT P6SM OVC008=



000
FTUS41 KPBZ 281731
TAFHLG
TAF
KHLG 281731Z 2818/2918 07005KT P6SM BKN004 OVC010
     FM282000 08007KT P6SM BKN010
     FM290300 VRB04KT P6SM OVC008
     FM290700 VRB03KT P6SM OVC004
     FM291500 VRB03KT P6SM OVC008=



000
FTUS41 KPBZ 281731
TAFBVI
TAF
KBVI 281731Z 2818/2918 07005KT 5SM -SHRA BR OVC010
     FM282000 08007KT P6SM OVC008
     FM290600 VRB03KT P6SM OVC004
     FM291500 VRB03KT P6SM OVC008=



000
FTUS41 KPBZ 281731
TAFLBE
TAF
KLBE 281731Z 2818/2918 07005KT P6SM BKN025 OVC035
     FM282000 08007KT P6SM BKN015 OVC025
     FM290200 VRB04KT P6SM OVC008
     FM291400 VRB03KT P6SM OVC010=



000
FTUS41 KPBZ 281731
TAFPIT
TAF
KPIT 281731Z 2818/2924 07005KT P6SM BKN004 OVC015
     FM282000 08007KT P6SM BKN010
     FM290200 VRB04KT P6SM OVC008
     FM290600 VRB03KT P6SM OVC004
     FM291500 VRB03KT P6SM OVC008
     FM291900 VRB04KT P6SM BKN015
     FM292100 31007KT P6SM BKN025=



000
FTUS41 KPBZ 281731
TAFAGC
TAF
KAGC 281731Z 2818/2918 07005KT P6SM BKN004 OVC012
     FM282000 08007KT P6SM BKN010
     FM290200 VRB04KT P6SM OVC008
     FM290600 VRB03KT P6SM OVC004
     FM291500 VRB03KT P6SM OVC008=



000
FTUS41 KPBZ 281731
TAFZZV
TAF
KZZV 281731Z 2818/2918 07005KT P6SM SCT012 BKN025
     FM290000 VRB04KT P6SM OVC012
     FM290700 VRB03KT P6SM OVC008
     FM291500 VRB03KT P6SM OVC015=



000
FTUS41 KPBZ 281731
TAFMGW
TAF
KMGW 281731Z 2818/2918 07005KT P6SM SCT025 OVC035
     FM290000 08007KT P6SM BKN015 OVC025
     FM290800 VRB04KT P6SM OVC008
     FM291500 VRB03KT P6SM OVC015=



000
FTUS41 KPBZ 281731
TAFDUJ
TAF
KDUJ 281731Z 2818/2918 10009KT 3SM -SHRA OVC015
     FM282300 09007KT 5SM -SHRA OVC010
     FM290100 08006KT P6SM OVC008
     FM290400 08005KT P6SM OVC004
     FM291500 VRB04KT P6SM VCSH OVC008=



000
FTUS41 KPBZ 281622 AAB
TAFAGC
TAF AMD
KAGC 281622Z 2816/2912 06005KT 2SM -SHRA BR OVC004
     FM281800 06009KT 5SM BR VCSH OVC008
     FM282100 06006KT 5SM BR VCSH OVC010
     FM290300 36005KT 5SM BR VCSH OVC008=



000
FTUS41 KPBZ 281619 AAC
TAFZZV
TAF AMD
KZZV 281619Z 2816/2912 VRB05KT P6SM OVC015
     FM282200 36006KT P6SM VCSH OVC010
     FM290300 36005KT 5SM BR VCSH OVC008=



000
FTUS41 KPBZ 281619 AAC
TAFZZV
TAF AMD
KZZV 281619Z 2816/2912 VRB05KT P6SM OVC015
     FM282200 36006KT P6SM VCSH OVC010
     FM290300 36005KT 5SM BR VCSH OVC008=



000
FTUS41 KPBZ 281616 AAA
TAFDUJ
TAF AMD
KDUJ 281616Z 2816/2912 11012G18KT 5SM -SHRA OVC025
     FM281800 10009KT 3SM -SHRA BR OVC015
     FM282200 11008KT P6SM VCSH BKN010=



000
FTUS41 KPBZ 281606 AAA
TAFHLG
TAF AMD
KHLG 281606Z 2816/2912 06005KT P6SM -SHRA OVC005
     FM281800 06009KT 5SM BR VCSH OVC010
     FM290300 36005KT 5SM BR VCSH OVC008=



000
FTUS41 KPBZ 281606 AAA
TAFHLG
TAF AMD
KHLG 281606Z 2816/2912 06005KT P6SM -SHRA OVC005
     FM281800 06009KT 5SM BR VCSH OVC010
     FM290300 36005KT 5SM BR VCSH OVC008=



000
FTUS41 KPBZ 281605 AAB
TAFPIT
TAF AMD
KPIT 281605Z 2816/2918 06005KT 2SM -SHRA OVC008
     FM281800 06009KT 5SM BR VCSH OVC010
     FM290300 36005KT 5SM BR VCSH OVC008
     FM291500 08003KT 5SM BR OVC015=



000
FTUS41 KPBZ 281605 AAA
TAFBVI
TAF AMD
KBVI 281605Z 2816/2912 08005KT 4SM -SHRA BKN015
     FM281800 03008KT P6SM VCSH OVC010
     FM290300 36005KT 5SM BR VCSH OVC008=



000
FTUS41 KPBZ 281605 AAA
TAFBVI
TAF AMD
KBVI 281605Z 2816/2912 08005KT 4SM -SHRA BKN015
     FM281800 03008KT P6SM VCSH OVC010
     FM290300 36005KT 5SM BR VCSH OVC008=



000
FTUS41 KPBZ 281449 AAB
TAFZZV
TAF AMD
KZZV 281449Z 2815/2912 03005KT P6SM VCSH OVC008
     FM282100 33006KT P6SM OVC015
     FM290300 36005KT 5SM BR VCSH OVC008=



000
FTUS41 KPBZ 281448 AAA
TAFAGC
TAF AMD
KAGC 281448Z 2815/2912 08005KT P6SM VCSH BKN015
     FM281800 03008KT P6SM VCSH OVC010
     FM290300 36005KT 5SM BR VCSH OVC008=



000
FTUS41 KPBZ 281446 AAA
TAFPIT
TAF AMD
KPIT 281446Z 2815/2918 06005KT P6SM VCSH BKN015
     FM281700 04005KT P6SM VCSH OVC010
     FM290300 36005KT 5SM BR VCSH OVC008
     FM291500 08003KT 5SM BR OVC015=



000
FTUS41 KPBZ 281308 AAA
TAFZZV
TAF AMD
KZZV 281308Z 2813/2912 06007KT P6SM VCSH BKN015
     FM282100 03008KT P6SM VCSH OVC010
     FM290300 36005KT 5SM BR VCSH OVC008=



000
FTUS41 KPBZ 281138
TAFMGW
TAF
KMGW 281138Z 2812/2912 34003KT 3SM -SHRA SCT050 BKN070
     FM281300 07005KT P6SM VCSH SCT010 BKN025
     FM281700 VRB05KT P6SM VCSH OVC015
     FM290600 33001KT 6SM BR OVC008=



000
FTUS41 KPBZ 281138
TAFBVI
TAF
KBVI 281138Z 2812/2912 07007KT 6SM -SHRA OVC025
      TEMPO 2812/2814 2SM -SHRA BR BKN015
     FM281800 08005KT P6SM VCSH BKN015
     FM282100 03008KT P6SM VCSH OVC010
     FM290300 36005KT 5SM BR VCSH OVC008=



000
FTUS41 KPBZ 281138
TAFHLG
TAF
KHLG 281138Z 2812/2912 07007KT 6SM -SHRA OVC025
      TEMPO 2812/2813 2SM -SHRA BR BKN015
     FM281800 08005KT P6SM VCSH BKN015
     FM282100 03008KT P6SM VCSH OVC010
     FM290300 36005KT 5SM BR VCSH OVC008=



000
FTUS41 KPBZ 281138
TAFZZV
TAF
KZZV 281138Z 2812/2912 04008KT P6SM VCSH BKN050
     FM281500 08005KT P6SM VCSH BKN015
     FM282100 03008KT P6SM VCSH OVC010
     FM290300 36005KT 5SM BR VCSH OVC008=



000
FTUS41 KPBZ 281138
TAFPIT
TAF
KPIT 281138Z 2812/2918 07007KT 6SM -SHRA OVC025
      TEMPO 2812/2814 2SM -SHRA BR BKN015
     FM281800 08005KT P6SM VCSH BKN015
     FM282100 03008KT P6SM VCSH OVC010
     FM290300 36005KT 5SM BR VCSH OVC008
     FM291500 08003KT 5SM BR OVC015=



000
FTUS41 KPBZ 281138
TAFDUJ
TAF
KDUJ 281138Z 2812/2912 07005KT P6SM BKN050
     FM281300 09009KT 5SM -SHRA OVC025
     FM281700 10009KT 3SM -SHRA BR OVC015
     FM282200 11008KT P6SM VCSH BKN010=



000
FTUS41 KPBZ 281138
TAFLBE
TAF
KLBE 281138Z 2812/2912 07007KT 6SM -SHRA OVC025
      TEMPO 2812/2814 2SM -SHRA BR BKN015
     FM282100 08005KT P6SM VCSH BKN015
     FM290100 13010KT 5SM BR VCSH OVC008=



000
FTUS41 KPBZ 281138
TAFAGC
TAF
KAGC 281138Z 2812/2912 07007KT 6SM -SHRA OVC025
      TEMPO 2812/2814 2SM -SHRA BR BKN015
     FM281800 08005KT P6SM VCSH BKN015
     FM282100 03008KT P6SM VCSH OVC010
     FM290300 36005KT 5SM BR VCSH OVC008=



000
FTUS41 KPBZ 281138
TAFBVI
TAF
KBVI 281138Z 2812/2912 07007KT 6SM -SHRA OVC025
      TEMPO 2812/2814 2SM -SHRA BR BKN015
     FM281800 08005KT P6SM VCSH BKN015
     FM282100 03008KT P6SM VCSH OVC010
     FM290300 36005KT 5SM BR VCSH OVC008=



000
FTUS41 KPBZ 281138
TAFMGW
TAF
KMGW 281138Z 2812/2912 34003KT 3SM -SHRA SCT050 BKN070
     FM281300 07005KT P6SM VCSH SCT010 BKN025
     FM281700 VRB05KT P6SM VCSH OVC015
     FM290600 33001KT 6SM BR OVC008=



000
FTUS41 KPBZ 281138
TAFAGC
TAF
KAGC 281138Z 2812/2912 07007KT 6SM -SHRA OVC025
      TEMPO 2812/2814 2SM -SHRA BR BKN015
     FM281800 08005KT P6SM VCSH BKN015
     FM282100 03008KT P6SM VCSH OVC010
     FM290300 36005KT 5SM BR VCSH OVC008=



000
FTUS41 KPBZ 281138
TAFZZV
TAF
KZZV 281138Z 2812/2912 04008KT P6SM VCSH BKN050
     FM281500 08005KT P6SM VCSH BKN015
     FM282100 03008KT P6SM VCSH OVC010
     FM290300 36005KT 5SM BR VCSH OVC008=



000
FTUS41 KPBZ 281138
TAFHLG
TAF
KHLG 281138Z 2812/2912 07007KT 6SM -SHRA OVC025
      TEMPO 2812/2813 2SM -SHRA BR BKN015
     FM281800 08005KT P6SM VCSH BKN015
     FM282100 03008KT P6SM VCSH OVC010
     FM290300 36005KT 5SM BR VCSH OVC008=



000
FTUS41 KPBZ 281138
TAFLBE
TAF
KLBE 281138Z 2812/2912 07007KT 6SM -SHRA OVC025
      TEMPO 2812/2814 2SM -SHRA BR BKN015
     FM282100 08005KT P6SM VCSH BKN015
     FM290100 13010KT 5SM BR VCSH OVC008=



000
FTUS41 KPBZ 281138
TAFDUJ
TAF
KDUJ 281138Z 2812/2912 07005KT P6SM BKN050
     FM281300 09009KT 5SM -SHRA OVC025
     FM281700 10009KT 3SM -SHRA BR OVC015
     FM282200 11008KT P6SM VCSH BKN010=



000
FTUS41 KPBZ 281138
TAFPIT
TAF
KPIT 281138Z 2812/2918 07007KT 6SM -SHRA OVC025
      TEMPO 2812/2814 2SM -SHRA BR BKN015
     FM281800 08005KT P6SM VCSH BKN015
     FM282100 03008KT P6SM VCSH OVC010
     FM290300 36005KT 5SM BR VCSH OVC008
     FM291500 08003KT 5SM BR OVC015=



000
FTUS41 KPBZ 280935 AAA
TAFPIT
TAF AMD
KPIT 280935Z 2810/2912 06005KT P6SM SCT040 OVC150
     FM281100 08007KT 3SM -SHRA OVC015
     FM281400 08007KT 3SM -SHRA BR OVC008
     FM281800 08005KT P6SM VCSH BKN015=



000
FTUS41 KPBZ 280537
TAFHLG
TAF
KHLG 280537Z 2806/2906 04007KT P6SM BKN150
     FM281000 08005KT 5SM -SHRA OVC015
     FM281300 08005KT 2SM -SHRA BR OVC008
     FM281700 10005KT P6SM VCSH BKN020=



000
FTUS41 KPBZ 280537
TAFZZV
TAF
KZZV 280537Z 2806/2906 03004KT P6SM OVC035
     FM280800 07005KT 3SM -SHRA OVC015
     FM281100 08006KT 3SM -SHRA BR OVC008
     FM281500 08005KT P6SM VCSH BKN015
     FM281800 06005KT P6SM VCSH BKN050=



000
FTUS41 KPBZ 280537
TAFLBE
TAF
KLBE 280537Z 2806/2906 00000KT P6SM BKN150
     FM281100 11009KT 5SM -SHRA OVC015
     FM281400 12010KT 3SM -SHRA BR OVC007
     FM281800 13010KT P6SM VCSH BKN015=



000
FTUS41 KPBZ 280537
TAFBVI
TAF
KBVI 280537Z 2806/2906 36007KT P6SM BKN150
     FM281200 08007KT 5SM -SHRA OVC010
     FM281400 08008KT 3SM -SHRA BR OVC007
     FM281900 09007KT P6SM VCSH OVC010
      AMD NOT SKED=



000
FTUS41 KPBZ 280537
TAFLBE
TAF
KLBE 280537Z 2806/2906 00000KT P6SM BKN150
     FM281100 11009KT 5SM -SHRA OVC015
     FM281400 12010KT 3SM -SHRA BR OVC007
     FM281800 13010KT P6SM VCSH BKN015=



000
FTUS41 KPBZ 280537
TAFBVI
TAF
KBVI 280537Z 2806/2906 36007KT P6SM BKN150
     FM281200 08007KT 5SM -SHRA OVC010
     FM281400 08008KT 3SM -SHRA BR OVC007
     FM281900 09007KT P6SM VCSH OVC010
      AMD NOT SKED=



000
FTUS41 KPBZ 280537
TAFHLG
TAF
KHLG 280537Z 2806/2906 04007KT P6SM BKN150
     FM281000 08005KT 5SM -SHRA OVC015
     FM281300 08005KT 2SM -SHRA BR OVC008
     FM281700 10005KT P6SM VCSH BKN020=



000
FTUS41 KPBZ 280537
TAFPIT
TAF
KPIT 280537Z 2806/2912 00000KT P6SM BKN150
     FM281100 08007KT 3SM -SHRA OVC015
     FM281400 08007KT 3SM -SHRA BR OVC008
     FM281800 08005KT P6SM VCSH BKN015=



000
FTUS41 KPBZ 280537
TAFMGW
TAF
KMGW 280537Z 2806/2906 32003KT P6SM BKN050
     FM281100 12005KT 3SM -SHRA BR OVC015
     FM281700 13008KT P6SM VCSH BKN020=



000
FTUS41 KPBZ 280537
TAFZZV
TAF
KZZV 280537Z 2806/2906 03004KT P6SM OVC035
     FM280800 07005KT 3SM -SHRA OVC015
     FM281100 08006KT 3SM -SHRA BR OVC008
     FM281500 08005KT P6SM VCSH BKN015
     FM281800 06005KT P6SM VCSH BKN050=



000
FTUS41 KPBZ 280537
TAFAGC
TAF
KAGC 280537Z 2806/2906 35004KT P6SM BKN150
     FM281100 09007KT 3SM -SHRA OVC015
     FM281400 09007KT 3SM -SHRA BR OVC008
     FM281800 09006KT P6SM VCSH BKN015=



000
FTUS41 KPBZ 280537
TAFDUJ
TAF
KDUJ 280537Z 2806/2906 04005KT P6SM BKN150
     FM281100 09007KT P6SM OVC050
     FM281500 10009KT 3SM -SHRA OVC010
     FM281700 10009KT 3SM -SHRA BR OVC008
     FM282200 11008KT P6SM VCSH BKN010=



000
FTUS41 KPBZ 280537
TAFMGW
TAF
KMGW 280537Z 2806/2906 32003KT P6SM BKN050
     FM281100 12005KT 3SM -SHRA BR OVC015
     FM281700 13008KT P6SM VCSH BKN020=



000
FTUS41 KPBZ 280537
TAFAGC
TAF
KAGC 280537Z 2806/2906 35004KT P6SM BKN150
     FM281100 09007KT 3SM -SHRA OVC015
     FM281400 09007KT 3SM -SHRA BR OVC008
     FM281800 09006KT P6SM VCSH BKN015=



000
FTUS41 KPBZ 280537
TAFDUJ
TAF
KDUJ 280537Z 2806/2906 04005KT P6SM BKN150
     FM281100 09007KT P6SM OVC050
     FM281500 10009KT 3SM -SHRA OVC010
     FM281700 10009KT 3SM -SHRA BR OVC008
     FM282200 11008KT P6SM VCSH BKN010=



000
FTUS41 KPBZ 280537
TAFPIT
TAF
KPIT 280537Z 2806/2912 00000KT P6SM BKN150
     FM281100 08007KT 3SM -SHRA OVC015
     FM281400 08007KT 3SM -SHRA BR OVC008
     FM281800 08005KT P6SM VCSH BKN015=



000
FTUS41 KPBZ 280255 AAA
TAFPIT
TAF AMD
KPIT 280255Z 2803/2906 02005KT P6SM OVC200
     FM281100 08007KT 3SM -SHRA OVC015
     FM281400 08007KT 3SM -SHRA BR OVC008
     FM281800 08005KT P6SM VCSH BKN015=



000
FTUS41 KPBZ 272326
TAFHLG
TAF
KHLG 272326Z 2800/2824 VRB03KT P6SM BKN040
     FM281000 08005KT 5SM -SHRA OVC015
     FM281300 08005KT 2SM -SHRA BR OVC008
     FM281700 10005KT P6SM VCSH BKN020=



000
FTUS41 KPBZ 272326
TAFPIT
TAF
KPIT 272326Z 2800/2906 02003KT P6SM OVC200
     FM281100 08007KT 3SM -SHRA OVC015
     FM281400 08007KT 3SM -SHRA BR OVC008
     FM281800 08005KT P6SM VCSH BKN015=



000
FTUS41 KPBZ 272326
TAFLBE
TAF
KLBE 272326Z 2800/2824 00000KT P6SM BKN050
     FM281100 11009KT 5SM -SHRA OVC015
     FM281400 12010KT 3SM -SHRA BR OVC007
     FM281800 13010KT P6SM VCSH BKN015=



000
FTUS41 KPBZ 272326
TAFDUJ
TAF
KDUJ 272326Z 2800/2824 00000KT P6SM BKN200
     FM281100 09007KT P6SM OVC050
     FM281500 10009KT 3SM -SHRA OVC010
     FM281700 10009KT 3SM -SHRA BR OVC008
     FM282200 11008KT P6SM VCSH BKN010=



000
FTUS41 KPBZ 272326
TAFAGC
TAF
KAGC 272326Z 2800/2824 00000KT P6SM OVC200
     FM281100 09007KT 3SM -SHRA OVC015
     FM281400 09007KT 3SM -SHRA BR OVC008
     FM281800 09006KT P6SM VCSH BKN015=



000
FTUS41 KPBZ 272326
TAFBVI
TAF
KBVI 272326Z 2800/2824 VRB03KT P6SM OVC200
     FM281200 08007KT 5SM -SHRA OVC010
     FM281400 08008KT 3SM -SHRA BR OVC007
     FM281900 09007KT P6SM VCSH OVC010
      AMD NOT SKED 2802/2812=



000
FTUS41 KPBZ 272326
TAFMGW
TAF
KMGW 272326Z 2800/2824 VRB03KT P6SM BKN040
     FM281100 12005KT 3SM -SHRA BR OVC015
     FM281700 13008KT P6SM VCSH BKN020=



000
FTUS41 KPBZ 272326
TAFZZV
TAF
KZZV 272326Z 2800/2824 VRB04KT P6SM BKN040
     FM280800 07005KT 3SM -SHRA OVC015
     FM281100 08006KT 3SM -SHRA BR OVC008
     FM281500 08005KT P6SM VCSH BKN015
     FM281800 06005KT P6SM VCSH BKN050=



000
FTUS41 KPBZ 272157 AAB
TAFHLG
TAF AMD
KHLG 272157Z 2722/2818 VRB04KT P6SM BKN025
     FM272300 03005KT P6SM BKN035
     FM280900 08007KT P6SM VCSH OVC025
     FM281200 08007KT 5SM -SHRA OVC015
     FM281500 09007KT 3SM -SHRA OVC010=



000
FTUS41 KPBZ 272157 AAB
TAFMGW
TAF AMD
KMGW 272157Z 2722/2818 02003KT P6SM BKN025
     FM280000 VRB03KT P6SM BKN035
     FM280900 11006KT P6SM VCSH BKN015
     FM281200 11008KT P6SM -SHRA OVC010
     FM281700 16005KT 6SM -SHRA OVC015=



000
FTUS41 KPBZ 272157 AAC
TAFZZV
TAF AMD
KZZV 272157Z 2722/2818 03005KT P6SM BKN035
     FM280600 VRB04KT P6SM VCSH OVC030
     FM281100 08006KT 5SM -SHRA OVC015
     FM281300 13005KT 3SM -SHRA OVC008
     FM281700 21006KT P6SM VCSH BKN015=



000
FTUS41 KPBZ 272157 AAC
TAFZZV
TAF AMD
KZZV 272157Z 2722/2818 03005KT P6SM BKN035
     FM280600 VRB04KT P6SM VCSH OVC030
     FM281100 08006KT 5SM -SHRA OVC015
     FM281300 13005KT 3SM -SHRA OVC008
     FM281700 21006KT P6SM VCSH BKN015=



000
FTUS41 KPBZ 272058 AAA
TAFLBE
TAF AMD
KLBE 272058Z 2721/2818 VRB05KT P6SM BKN035
     FM280900 11006KT P6SM VCSH BKN020
     FM281200 11008KT P6SM -SHRA OVC015=



000
FTUS41 KPBZ 272057 AAB
TAFZZV
TAF AMD
KZZV 272057Z 2721/2818 03005KT P6SM BKN025
     FM272300 05005KT P6SM BKN035
     FM280600 VRB04KT P6SM VCSH OVC030
     FM281100 08006KT 5SM -SHRA OVC015
     FM281300 13005KT 3SM -SHRA OVC008
     FM281700 21006KT P6SM VCSH BKN015=



000
FTUS41 KPBZ 272057 AAB
TAFZZV
TAF AMD
KZZV 272057Z 2721/2818 03005KT P6SM BKN025
     FM272300 05005KT P6SM BKN035
     FM280600 VRB04KT P6SM VCSH OVC030
     FM281100 08006KT 5SM -SHRA OVC015
     FM281300 13005KT 3SM -SHRA OVC008
     FM281700 21006KT P6SM VCSH BKN015=



000
FTUS41 KPBZ 272026 AAA
TAFZZV
TAF AMD
KZZV 272026Z 2720/2818 36005KT P6SM BKN035
     FM280600 VRB04KT P6SM VCSH OVC030
     FM281100 08006KT 5SM -SHRA OVC015
     FM281300 13005KT 3SM -SHRA OVC008
     FM281700 21006KT P6SM VCSH BKN015=



000
FTUS41 KPBZ 272026 AAA
TAFZZV
TAF AMD
KZZV 272026Z 2720/2818 36005KT P6SM BKN035
     FM280600 VRB04KT P6SM VCSH OVC030
     FM281100 08006KT 5SM -SHRA OVC015
     FM281300 13005KT 3SM -SHRA OVC008
     FM281700 21006KT P6SM VCSH BKN015=



000
FTUS41 KPBZ 272025 AAA
TAFAGC
TAF AMD
KAGC 272025Z 2720/2818 36003KT P6SM BKN035
     FM280900 08007KT P6SM VCSH OVC025
     FM281300 08007KT 5SM -SHRA OVC015=



000
FTUS41 KPBZ 272025 AAB
TAFPIT
TAF AMD
KPIT 272025Z 2720/2824 32005KT P6SM BKN035
     FM280100 03005KT P6SM BKN035
     FM280900 08007KT P6SM VCSH OVC025
     FM281300 08007KT 5SM -SHRA OVC015
     FM281800 VRB04KT P6SM -SHRA BKN025=



000
FTUS41 KPBZ 272025 AAA
TAFHLG
TAF AMD
KHLG 272025Z 2720/2818 VRB04KT P6SM BKN025
     FM272200 03005KT P6SM BKN035
     FM280900 08007KT P6SM VCSH OVC025
     FM281200 08007KT 5SM -SHRA OVC015
     FM281500 09007KT 3SM -SHRA OVC010=



000
FTUS41 KPBZ 271913 AAA
TAFPIT
TAF AMD
KPIT 271913Z 2719/2824 33005KT P6SM BKN020
     FM272100 34005KT P6SM BKN035
     FM280100 03005KT P6SM BKN035
     FM280900 08007KT P6SM VCSH OVC025
     FM281300 08007KT 5SM -SHRA OVC015
     FM281800 VRB04KT P6SM -SHRA BKN025=



000
FTUS41 KPBZ 271913 AAA
TAFPIT
TAF AMD
KPIT 271913Z 2719/2824 33005KT P6SM BKN020
     FM272100 34005KT P6SM BKN035
     FM280100 03005KT P6SM BKN035
     FM280900 08007KT P6SM VCSH OVC025
     FM281300 08007KT 5SM -SHRA OVC015
     FM281800 VRB04KT P6SM -SHRA BKN025=



000
FTUS41 KPBZ 271908 AAA
TAFMGW
TAF AMD
KMGW 271908Z 2719/2818 VRB03KT P6SM BKN035
     FM280900 11006KT P6SM VCSH BKN015
     FM281200 11008KT P6SM -SHRA OVC010
     FM281700 16005KT 6SM -SHRA OVC015=



000
FTUS41 KPBZ 271907 AAA
TAFBVI
TAF AMD
KBVI 271907Z 2719/2818 34005KT P6SM SCT035
     FM280900 08007KT P6SM VCSH OVC025
     FM281300 08007KT 5SM -SHRA OVC015
     FM281500 12006KT 3SM -SHRA OVC008=



000
FTUS41 KPBZ 271731
TAFAGC
TAF
KAGC 271731Z 2718/2818 01005KT P6SM OVC020
     FM272200 03005KT P6SM BKN035
     FM280900 08007KT P6SM VCSH OVC025
     FM281300 08007KT 5SM -SHRA OVC015=



000
FTUS41 KPBZ 271731
TAFBVI
TAF
KBVI 271731Z 2718/2818 01005KT P6SM BKN020
     FM272100 03005KT P6SM BKN035
     FM280900 08007KT P6SM VCSH OVC025
     FM281300 08007KT 5SM -SHRA OVC015
     FM281500 12006KT 3SM -SHRA OVC008=



000
FTUS41 KPBZ 271731
TAFPIT
TAF
KPIT 271731Z 2718/2824 01005KT P6SM BKN020
     FM272100 03005KT P6SM BKN035
     FM280900 08007KT P6SM VCSH OVC025
     FM281300 08007KT 5SM -SHRA OVC015
     FM281800 VRB04KT P6SM -SHRA BKN025=



000
FTUS41 KPBZ 271731
TAFZZV
TAF
KZZV 271731Z 2718/2818 VRB04KT P6SM OVC015
     FM280600 VRB04KT P6SM VCSH OVC030
     FM281100 08006KT 5SM -SHRA OVC015
     FM281300 13005KT 3SM -SHRA OVC008
     FM281700 21006KT P6SM VCSH BKN015=



000
FTUS41 KPBZ 271731
TAFLBE
TAF
KLBE 271731Z 2718/2818 VRB03KT P6SM OVC025
     FM272200 03005KT P6SM OVC035
     FM280900 11006KT P6SM VCSH BKN020
     FM281200 11008KT P6SM -SHRA OVC015=



000
FTUS41 KPBZ 271731
TAFMGW
TAF
KMGW 271731Z 2718/2818 VRB03KT P6SM OVC015
     FM272300 03005KT P6SM OVC030
     FM280900 11006KT P6SM VCSH BKN015
     FM281200 11008KT P6SM -SHRA OVC010
     FM281700 16005KT 6SM -SHRA OVC015=



000
FTUS41 KPBZ 271731
TAFHLG
TAF
KHLG 271731Z 2718/2818 VRB04KT P6SM OVC015
     FM272200 03005KT P6SM BKN035
     FM280900 08007KT P6SM VCSH OVC025
     FM281200 08007KT 5SM -SHRA OVC015
     FM281500 09007KT 3SM -SHRA OVC010=



000
FTUS41 KPBZ 271731
TAFDUJ
TAF
KDUJ 271731Z 2718/2818 03005KT P6SM SKC
     FM280900 07005KT P6SM BKN080
     FM281200 09009KT P6SM VCSH OVC025
     FM281600 09009KT 6SM -SHRA OVC015=



000
FTUS41 KPBZ 271451 AAA
TAFZZV
TAF AMD
KZZV 271451Z 2715/2812 04005KT P6SM OVC015
     FM271700 03005KT P6SM SCT050=



000
FTUS41 KPBZ 271450 AAA
TAFMGW
TAF AMD
KMGW 271450Z 2715/2812 35004KT P6SM OVC010
     FM271700 03008KT P6SM BKN025
     FM272100 03008KT P6SM BKN050=



000
FTUS41 KPBZ 271450 AAA
TAFHLG
TAF AMD
KHLG 271450Z 2715/2812 35006KT P6SM BKN015 BKN035
     FM271700 05005KT P6SM SCT015 SCT035=



000
FTUS41 KPBZ 271450 AAA
TAFMGW
TAF AMD
KMGW 271450Z 2715/2812 35004KT P6SM OVC010
     FM271700 03008KT P6SM BKN025
     FM272100 03008KT P6SM BKN050=



000
FTUS41 KPBZ 271450 AAA
TAFHLG
TAF AMD
KHLG 271450Z 2715/2812 35006KT P6SM BKN015 BKN035
     FM271700 05005KT P6SM SCT015 SCT035=



000
FTUS41 KPBZ 271448 AAA
TAFBVI
TAF AMD
KBVI 271448Z 2715/2812 35006KT P6SM BKN015 BKN035
     FM271700 05005KT P6SM SCT015 SCT035=



000
FTUS41 KPBZ 271448 AAA
TAFBVI
TAF AMD
KBVI 271448Z 2715/2812 35006KT P6SM BKN015 BKN035
     FM271700 05005KT P6SM SCT015 SCT035=



000
FTUS41 KPBZ 271447 AAA
TAFPIT
TAF AMD
KPIT 271447Z 2715/2818 35006KT P6SM BKN015 BKN035
     FM271700 05005KT P6SM SCT015
     FM281500 09007KT P6SM -SHRA BKN020=



000
FTUS41 KPBZ 271447 AAA
TAFAGC
TAF AMD
KAGC 271447Z 2715/2812 35006KT P6SM BKN020 BKN035
     FM271700 05005KT P6SM SCT015=



000
FTUS41 KPBZ 271447 AAA
TAFPIT
TAF AMD
KPIT 271447Z 2715/2818 35006KT P6SM BKN015 BKN035
     FM271700 05005KT P6SM SCT015
     FM281500 09007KT P6SM -SHRA BKN020=



000
FTUS41 KPBZ 271447 AAA
TAFAGC
TAF AMD
KAGC 271447Z 2715/2812 35006KT P6SM BKN020 BKN035
     FM271700 05005KT P6SM SCT015=



000
FTUS41 KPBZ 271136
TAFBVI
TAF
KBVI 271136Z 2712/2812 35007KT P6SM BKN025
     FM271500 05005KT P6SM SCT035=



000
FTUS41 KPBZ 271136
TAFLBE
TAF
KLBE 271136Z 2712/2812 02007KT P6SM BKN035
     FM271500 04005KT P6SM SCT035=



000
FTUS41 KPBZ 271136
TAFMGW
TAF
KMGW 271136Z 2712/2812 01004KT P6SM OVC012
     FM271400 03008KT P6SM BKN025
     FM271700 03008KT P6SM BKN050=



000
FTUS41 KPBZ 271136
TAFPIT
TAF
KPIT 271136Z 2712/2818 01006KT P6SM BKN010 OVC035
     FM271300 01006KT P6SM SCT015 BKN035
     FM271500 05005KT P6SM SCT035
     FM281500 09007KT P6SM -SHRA BKN020=



000
FTUS41 KPBZ 271136
TAFZZV
TAF
KZZV 271136Z 2712/2812 04005KT P6SM BKN020
     FM271600 03005KT P6SM SCT050=



000
FTUS41 KPBZ 271136
TAFHLG
TAF
KHLG 271136Z 2712/2812 02008KT P6SM SCT025 BKN035
     FM271400 03005KT P6SM SCT035=



000
FTUS41 KPBZ 271136
TAFAGC
TAF
KAGC 271136Z 2712/2812 01006KT P6SM SCT015 OVC035
     FM271500 05005KT P6SM SCT035=



000
FTUS41 KPBZ 271136
TAFZZV
TAF
KZZV 271136Z 2712/2812 04005KT P6SM BKN020
     FM271600 03005KT P6SM SCT050=



000
FTUS41 KPBZ 271136
TAFLBE
TAF
KLBE 271136Z 2712/2812 02007KT P6SM BKN035
     FM271500 04005KT P6SM SCT035=



000
FTUS41 KPBZ 271136
TAFPIT
TAF
KPIT 271136Z 2712/2818 01006KT P6SM BKN010 OVC035
     FM271300 01006KT P6SM SCT015 BKN035
     FM271500 05005KT P6SM SCT035
     FM281500 09007KT P6SM -SHRA BKN020=



000
FTUS41 KPBZ 271136
TAFAGC
TAF
KAGC 271136Z 2712/2812 01006KT P6SM SCT015 OVC035
     FM271500 05005KT P6SM SCT035=



000
FTUS41 KPBZ 271136
TAFMGW
TAF
KMGW 271136Z 2712/2812 01004KT P6SM OVC012
     FM271400 03008KT P6SM BKN025
     FM271700 03008KT P6SM BKN050=



000
FTUS41 KPBZ 271136
TAFBVI
TAF
KBVI 271136Z 2712/2812 35007KT P6SM BKN025
     FM271500 05005KT P6SM SCT035=



000
FTUS41 KPBZ 271136
TAFHLG
TAF
KHLG 271136Z 2712/2812 02008KT P6SM SCT025 BKN035
     FM271400 03005KT P6SM SCT035=



000
FTUS41 KPBZ 271136
TAFDUJ
TAF
KDUJ 271136Z 2712/2812 05007KT P6SM OVC010
     FM271300 07006KT P6SM SCT010
     FM271700 VRB03KT P6SM BKN050=



000
FTUS41 KPBZ 270953 AAA
TAFLBE
TAF AMD
KLBE 270953Z 2710/2806 34003KT P6SM BKN035
     FM271200 03005KT P6SM BKN025
     FM271500 04005KT P6SM SCT035=



000
FTUS41 KPBZ 270953 AAA
TAFAGC
TAF AMD
KAGC 270953Z 2710/2806 35005KT P6SM BKN030
     FM271200 03008KT P6SM BKN025
     FM271500 04005KT P6SM SCT035=



000
FTUS41 KPBZ 270953 AAA
TAFZZV
TAF AMD
KZZV 270953Z 2710/2806 03005KT P6SM BKN025
      TEMPO 2710/2712 BKN015
     FM271300 03005KT P6SM SCT050=



000
FTUS41 KPBZ 270953 AAA
TAFBVI
TAF AMD
KBVI 270953Z 2710/2806 35007KT P6SM BKN012
     FM271200 03008KT P6SM BKN025
     FM271500 05005KT P6SM SCT035
      AMD NOT SKED TIL 271200=



000
FTUS41 KPBZ 270953 AAA
TAFDUJ
TAF AMD
KDUJ 270953Z 2710/2806 05008KT P6SM OVC009
     FM271200 06005KT P6SM SCT035=



000
FTUS41 KPBZ 270953 AAA
TAFPIT
TAF AMD
KPIT 270953Z 2710/2812 36008KT P6SM BKN012
     FM271200 03008KT P6SM BKN025
     FM271500 05005KT P6SM SCT035=



000
FTUS41 KPBZ 270953 AAA
TAFMGW
TAF AMD
KMGW 270953Z 2710/2806 00000KT P6SM OVC013
     FM271300 03008KT P6SM BKN025
     FM271600 VRB03KT P6SM BKN050=



000
FTUS41 KPBZ 270953 AAA
TAFHLG
TAF AMD
KHLG 270953Z 2710/2806 36008KT P6SM BKN025
     FM271200 02005KT P6SM BKN025
     FM271600 03005KT P6SM SCT035=



000
FTUS41 KPBZ 270953 AAA
TAFZZV
TAF AMD
KZZV 270953Z 2710/2806 03005KT P6SM BKN025
      TEMPO 2710/2712 BKN015
     FM271300 03005KT P6SM SCT050=



000
FTUS41 KPBZ 270953 AAA
TAFBVI
TAF AMD
KBVI 270953Z 2710/2806 35007KT P6SM BKN012
     FM271200 03008KT P6SM BKN025
     FM271500 05005KT P6SM SCT035
      AMD NOT SKED TIL 271200=



000
FTUS41 KPBZ 270953 AAA
TAFAGC
TAF AMD
KAGC 270953Z 2710/2806 35005KT P6SM BKN030
     FM271200 03008KT P6SM BKN025
     FM271500 04005KT P6SM SCT035=



000
FTUS41 KPBZ 270953 AAA
TAFLBE
TAF AMD
KLBE 270953Z 2710/2806 34003KT P6SM BKN035
     FM271200 03005KT P6SM BKN025
     FM271500 04005KT P6SM SCT035=



000
FTUS41 KPBZ 270953 AAA
TAFPIT
TAF AMD
KPIT 270953Z 2710/2812 36008KT P6SM BKN012
     FM271200 03008KT P6SM BKN025
     FM271500 05005KT P6SM SCT035=



000
FTUS41 KPBZ 270953 AAA
TAFMGW
TAF AMD
KMGW 270953Z 2710/2806 00000KT P6SM OVC013
     FM271300 03008KT P6SM BKN025
     FM271600 VRB03KT P6SM BKN050=



000
FTUS41 KPBZ 270953 AAA
TAFHLG
TAF AMD
KHLG 270953Z 2710/2806 36008KT P6SM BKN025
     FM271200 02005KT P6SM BKN025
     FM271600 03005KT P6SM SCT035=



000
FTUS41 KPBZ 270953 AAA
TAFDUJ
TAF AMD
KDUJ 270953Z 2710/2806 05008KT P6SM OVC009
     FM271200 06005KT P6SM SCT035=



000
FTUS41 KPBZ 270538
TAFBVI
TAF
KBVI 270538Z 2706/2806 35007KT P6SM BKN045
     FM271100 02008KT P6SM SCT050
      AMD NOT SKED TIL 271200=



000
FTUS41 KPBZ 270538
TAFPIT
TAF
KPIT 270538Z 2706/2812 35007KT P6SM SCT060 OVC250
     FM271200 03008KT P6SM BKN025
     FM271500 05005KT P6SM SCT035=



000
FTUS41 KPBZ 270538
TAFZZV
TAF
KZZV 270538Z 2706/2806 34007KT P6SM FEW045 OVC070
     FM270700 36005KT P6SM SCT015 BKN025
      TEMPO 2709/2712 BKN015
     FM271300 03005KT P6SM SCT050=



000
FTUS41 KPBZ 270538
TAFHLG
TAF
KHLG 270538Z 2706/2806 35007KT P6SM OVC045
     FM271200 02005KT P6SM BKN025
     FM271600 03005KT P6SM SCT035=



000
FTUS41 KPBZ 270538
TAFDUJ
TAF
KDUJ 270538Z 2706/2806 05005KT P6SM OVC010
      TEMPO 2706/2709 BKN008
     FM271200 06005KT P6SM SCT035=



000
FTUS41 KPBZ 270538
TAFAGC
TAF
KAGC 270538Z 2706/2806 34006KT P6SM BKN045
     FM271200 03008KT P6SM BKN025
     FM271500 04005KT P6SM SCT035=



000
FTUS41 KPBZ 270538
TAFLBE
TAF
KLBE 270538Z 2706/2806 35004KT P6SM OVC050
     FM271200 03005KT P6SM BKN025
     FM271500 04005KT P6SM SCT035=



000
FTUS41 KPBZ 270538
TAFMGW
TAF
KMGW 270538Z 2706/2806 23004KT P6SM OVC019
     FM271600 VRB03KT P6SM BKN050=



000
FTUS41 KPBZ 270249 AAA
TAFDUJ
TAF AMD
KDUJ 270249Z 2703/2724 36005KT P6SM SCT008 BKN015
      TEMPO 2705/2709 BKN008
     FM271200 06005KT P6SM SCT035=



000
FTUS41 KPBZ 270246 AAA
TAFZZV
TAF AMD
KZZV 270246Z 2703/2724 36005KT P6SM OVC150
     FM270700 36005KT P6SM SCT015 BKN025
      TEMPO 2709/2712 BKN015
     FM271300 03005KT P6SM SCT050=



000
FTUS41 KPBZ 270245 AAC
TAFMGW
TAF AMD
KMGW 270245Z 2703/2724 VRB03KT P6SM SCT025 OVC040
     FM270500 36005KT P6SM BKN020
     FM271600 VRB03KT P6SM BKN050=



000
FTUS41 KPBZ 270244 AAA
TAFHLG
TAF AMD
KHLG 270244Z 2703/2724 01008KT P6SM OVC100
     FM270600 01008KT P6SM BKN015
     FM271200 02005KT P6SM BKN025
     FM271600 03005KT P6SM SCT035=



000
FTUS41 KPBZ 270244 AAA
TAFHLG
TAF AMD
KHLG 270244Z 2703/2724 01008KT P6SM OVC100
     FM270600 01008KT P6SM BKN015
     FM271200 02005KT P6SM BKN025
     FM271600 03005KT P6SM SCT035=



000
FTUS41 KPBZ 270242 AAA
TAFLBE
TAF AMD
KLBE 270242Z 2703/2724 33005KT P6SM BKN050
     FM270600 36008KT P6SM BKN015
     FM271200 03005KT P6SM BKN025
     FM271500 04005KT P6SM SCT035=



000
FTUS41 KPBZ 270241 AAB
TAFPIT
TAF AMD
KPIT 270241Z 2703/2806 35012KT P6SM OVC200
     FM270600 36008KT P6SM BKN015
     FM271200 03008KT P6SM BKN025
     FM271500 05005KT P6SM SCT035=



000
FTUS41 KPBZ 270241 AAA
TAFAGC
TAF AMD
KAGC 270241Z 2703/2724 32012KT P6SM OVC150
     FM270600 36008KT P6SM BKN015
     FM271200 03008KT P6SM BKN025
     FM271500 04005KT P6SM SCT035=



000
FTUS41 KPBZ 270241 AAA
TAFAGC
TAF AMD
KAGC 270241Z 2703/2724 32012KT P6SM OVC150
     FM270600 36008KT P6SM BKN015
     FM271200 03008KT P6SM BKN025
     FM271500 04005KT P6SM SCT035=



000
FTUS41 KPBZ 270215 AAB
TAFMGW
TAF AMD
KMGW 270215Z 2702/2724 VRB03KT P6SM BKN025
     FM270500 36005KT P6SM BKN015
     FM271600 VRB03KT P6SM BKN050=



000
FTUS41 KPBZ 270120 AAA
TAFPIT
TAF AMD
KPIT 270120Z 2701/2806 35012KT P6SM BKN060
     FM270500 36008KT P6SM BKN015
     FM271200 03008KT P6SM SCT050=



000
FTUS41 KPBZ 270119 AAA
TAFMGW
TAF AMD
KMGW 270119Z 2701/2724 21008KT P6SM OVC100
     FM270200 35010KT P6SM BKN050
     FM270400 36005KT P6SM BKN015
     FM271600 VRB03KT P6SM BKN050=



000
FTUS41 KPBZ 262354 CCA
TAFZZV
TAF COR
KZZV 262354Z 2700/2724 36005KT P6SM BKN040
     FM270500 36005KT P6SM BKN015
     FM271300 03005KT P6SM SCT050=



000
FTUS41 KPBZ 262354 CCA
TAFZZV
TAF COR
KZZV 262354Z 2700/2724 36005KT P6SM BKN040
     FM270500 36005KT P6SM BKN015
     FM271300 03005KT P6SM SCT050=



000
FTUS41 KPBZ 262327
TAFPIT
TAF
KPIT 262327Z 2700/2806 32012KT P6SM BKN060
     FM270500 36008KT P6SM BKN015
     FM271200 03008KT P6SM SCT050=



000
FTUS41 KPBZ 262327
TAFDUJ
TAF
KDUJ 262327Z 2700/2724 32012G22KT P6SM BKN040
     FM270200 03006KT P6SM SCT008 BKN015
      TEMPO 2703/2707 BKN008
     FM271000 06005KT P6SM SCT050=



000
FTUS41 KPBZ 262327
TAFZZV
TAF
KZZV 262327Z 2700/2724 35006KT 5SM -TSRA OVC035CB
     FM270100 36005KT P6SM BKN040
     FM270500 36005KT P6SM BKN015
     FM271300 03005KT P6SM SCT050=



000
FTUS41 KPBZ 262327
TAFMGW
TAF
KMGW 262327Z 2700/2724 21008KT P6SM VCTS BKN050CB
     FM270200 35010KT P6SM BKN050
     FM270400 36005KT P6SM BKN015
     FM271600 VRB03KT P6SM BKN050=



000
FTUS41 KPBZ 262327
TAFLBE
TAF
KLBE 262327Z 2700/2724 33012KT P6SM BKN050
     FM270600 36008KT P6SM BKN015
     FM271200 03005KT P6SM SCT040=



000
FTUS41 KPBZ 262327
TAFBVI
TAF
KBVI 262327Z 2700/2724 35008KT P6SM BKN060
     FM270400 36008KT P6SM BKN015
     FM271100 02008KT P6SM SCT050
      AMD NOT SKED 2702/2712=



000
FTUS41 KPBZ 262327
TAFHLG
TAF
KHLG 262327Z 2700/2724 34010KT P6SM BKN060
     FM270600 01008KT P6SM BKN015
     FM271200 02005KT P6SM SCT050=



000
FTUS41 KPBZ 262327
TAFAGC
TAF
KAGC 262327Z 2700/2724 32012KT P6SM BKN060
     FM270500 36008KT P6SM BKN015
     FM271200 03008KT P6SM SCT050=



000
FTUS41 KPBZ 262220 AAC
TAFZZV
TAF AMD
KZZV 262220Z 2622/2718 36006KT P6SM BKN050
      TEMPO 2622/2624 2SM TSRA OVC025CB
     FM270700 VRB04KT P6SM BKN015
     FM271400 04006KT P6SM SCT080=



000
FTUS41 KPBZ 262101 AAA
TAFLBE
TAF AMD
KLBE 262101Z 2621/2718 24010G20KT P6SM BKN040
     FM262200 32012G24KT P6SM BKN050
     FM270300 36007KT P6SM BKN015
     FM271200 03006KT P6SM SCT060=



000
FTUS41 KPBZ 262100 AAA
TAFAGC
TAF AMD
KAGC 262100Z 2621/2718 26010G18KT P6SM BKN045
     FM262200 32012G24KT P6SM BKN050
     FM270300 36007KT P6SM BKN015
     FM271200 03006KT P6SM SCT060=



000
FTUS41 KPBZ 262059 AAB
TAFHLG
TAF AMD
KHLG 262059Z 2621/2718 35012G24KT 3SM -TSRA OVC035CB
     FM262130 33012G24KT P6SM BKN050
     FM270200 36007KT P6SM BKN015
     FM271200 03006KT P6SM SCT060=



000
FTUS41 KPBZ 262057 AAA
TAFPIT
TAF AMD
KPIT 262057Z 2621/2724 32012G24KT P6SM BKN050
     FM270100 36007KT P6SM BKN015
     FM271200 03006KT P6SM SCT060=



000
FTUS41 KPBZ 262057 AAA
TAFPIT
TAF AMD
KPIT 262057Z 2621/2724 32012G24KT P6SM BKN050
     FM270100 36007KT P6SM BKN015
     FM271200 03006KT P6SM SCT060=



000
FTUS41 KPBZ 262017 AAB
TAFDUJ
TAF AMD
KDUJ 262017Z 2620/2718 30012G24KT P6SM SCT040
     FM262130 34010KT P6SM BKN012
     FM270000 36005KT P6SM BKN008
     FM271400 05005KT P6SM SCT200=



000
FTUS41 KPBZ 262017 AAB
TAFDUJ
TAF AMD
KDUJ 262017Z 2620/2718 30012G24KT P6SM SCT040
     FM262130 34010KT P6SM BKN012
     FM270000 36005KT P6SM BKN008
     FM271400 05005KT P6SM SCT200=



000
FTUS41 KPBZ 262001 AAA
TAFBVI
TAF AMD
KBVI 262001Z 2620/2718 33010G20KT P6SM SCT045
     FM270100 36007KT P6SM BKN015
     FM270900 02006KT P6SM BKN015
     FM271200 03006KT P6SM SCT060=



    US Dept of Commerce
    National Oceanic and Atmospheric Administration
    National Weather Service
    1325 East West Highway
    Silver Spring, MD 20910
    Page Author: NWS Internet Services Team
Disclaimer
Information Quality
Credits
Glossary
Privacy Policy
Freedom of Information Act (FOIA)
About Us
Career Opportunities